Latest Weather Observations for Amberley

IDQ60901

Issued at 11:35 pm EST Sunday 20 April 2014 (issued every 10 minutes, with the page automatically refreshed every 10 minutes)

About weather observations | Map of Brisbane area stations | Latest observations for Brisbane area | Other Formats
Station Details ID: 040004 Name: AMBERLEY AMO Lat: -27.63 Lon: 152.71 Height: 24.2 m
Data from the previous 72 hours. | See also: Recent months at Amberley
Date/Time
EST
Tmp

°C
App
Tmp
°C
Dew
Point
°C
Rel
Hum
%
Delta-T

°C
Wind Press
QNH
hPa
Press
MSL
hPa
Rain
since
9 am
mm
Dir
 
Spd
km/h
Gust
km/h
Spd
kts
Gust
kts
20/11:30pm 13.4 13.9 11.5 88 1.0 WNW 0 0 0 0 1018.7 - 0.0
20/11:00pm 13.9 14.4 11.7 86 1.2 CALM 0 0 0 0 1018.6 - 0.0
20/10:30pm 13.5 14.1 12.0 91 0.8 CALM 0 0 0 0 1018.6 - 0.0
20/10:00pm 14.4 13.9 12.0 85 1.3 WNW 6 9 3 5 1018.4 - 0.0
20/09:30pm 14.3 15.1 12.5 89 1.0 CALM 0 0 0 0 1018.3 - 0.0
20/09:00pm 15.9 16.7 12.6 81 1.8 CALM 0 0 0 0 1018.0 1017.9 0.0
20/08:30pm 16.0 16.8 12.5 80 1.9 CALM 0 0 0 0 1017.9 - 0.0
20/08:00pm 17.5 18.1 11.8 69 3.1 CALM 0 0 0 0 1017.7 - 0.0
20/07:30pm 19.1 18.4 11.9 63 4.0 E 7 9 4 5 1017.4 - 0.0
20/07:00pm 20.0 18.6 10.8 55 5.0 E 9 9 5 5 1017.0 - 0.0
20/06:30pm 20.2 19.0 11.7 58 4.7 ENE 9 11 5 6 1016.7 - 0.0
20/06:00pm 20.1 19.2 11.4 57 4.8 ENE 7 13 4 7 1016.3 1016.2 0.0
20/05:30pm 23.7 22.6 10.7 44 7.2 NE 7 9 4 5 1015.9 - 0.0
20/05:00pm 25.4 24.3 10.7 39 8.2 NNE 7 9 4 5 1015.7 - 0.0
20/04:30pm 26.5 25.4 8.6 32 9.7 N 4 9 2 5 1015.3 - 0.0
20/04:00pm 26.9 25.2 8.5 31 10.0 N 7 11 4 6 1015.2 - 0.0
20/03:30pm 27.4 27.0 8.2 29 10.4 CALM 0 7 0 4 1015.2 - 0.0
20/03:00pm 27.1 24.9 7.7 29 10.4 N 9 13 5 7 1015.3 1015.2 0.0
20/02:30pm 27.4 25.7 8.2 29 10.4 NNW 7 13 4 7 1015.4 - 0.0
20/02:00pm 27.0 25.1 8.9 32 9.9 N 9 15 5 8 1015.6 - 0.0
20/01:30pm 27.4 24.6 8.5 30 10.3 NW 13 19 7 10 1015.8 - 0.0
20/01:00pm 26.9 26.3 9.0 32 9.8 WNW 2 7 1 4 1016.1 - 0.0
20/12:30pm 27.2 26.5 11.4 37 9.0 N 6 11 3 6 1016.5 - 0.0
20/12:00pm 26.4 25.6 12.8 43 7.9 NNW 9 15 5 8 1017.0 1016.9 0.0
20/11:30am 25.4 25.4 14.1 49 6.7 WNW 7 15 4 8 1017.5 - 0.0
20/11:00am 24.6 25.1 13.9 51 6.3 WSW 4 9 2 5 1018.0 - 0.0
20/10:30am 23.9 24.5 14.2 54 5.7 N 4 9 2 5 1018.5 - 0.0
20/10:00am 22.7 23.8 13.5 56 5.3 CALM 0 4 0 2 1018.7 - 0.0
20/09:30am 21.4 21.7 13.4 60 4.6 WNW 4 9 2 5 1018.7 - 0.0
20/09:00am 19.6 19.9 13.5 68 3.5 WSW 4 9 2 5 1018.8 1018.7 0.0
20/08:30am 17.8 18.9 13.6 76 2.4 CALM 0 0 0 0 1018.7 - 0.0
20/08:00am 15.9 16.7 12.6 81 1.8 CALM 0 0 0 0 1018.7 - 0.0
20/07:30am 14.0 14.7 12.3 89 0.9 CALM 0 0 0 0 1018.4 - 0.0
20/07:00am 12.2 12.6 11.4 95 0.4 CALM 0 0 0 0 1018.1 - 0.0
20/06:37am 10.7 10.8 10.1 96 0.3 CALM 0 0 0 0 1017.8 - 0.0
20/06:30am 10.2 10.2 9.8 97 0.2 CALM 0 0 0 0 1017.7 - 0.0
20/06:17am 10.5 10.6 10.1 97 0.2 CALM 0 0 0 0 1017.6 - 0.0
20/06:00am 11.1 11.3 10.7 97 0.2 NNW 0 0 0 0 1017.4 1017.3 0.0
20/05:30am 11.2 10.6 10.4 95 0.4 NNW 4 6 2 3 1016.9 - 0.0
20/05:00am 11.7 11.9 10.7 94 0.5 CALM 0 0 0 0 1016.6 - 0.0
20/04:30am 11.8 11.3 10.8 94 0.5 NNW 4 6 2 3 1016.3 - 0.0
20/04:00am 11.5 10.7 11.1 97 0.2 NNW 6 7 3 4 1016.3 - 0.0
20/03:30am 11.0 11.2 10.4 96 0.3 CALM 0 0 0 0 1016.1 - 0.0
20/03:00am 11.7 11.9 10.7 94 0.5 CALM 0 0 0 0 1016.2 1016.1 0.0
20/02:30am 12.1 12.5 11.1 94 0.5 CALM 0 0 0 0 1016.1 - 0.0
20/02:00am 12.3 12.0 11.3 94 0.5 W 4 6 2 3 1016.0 - 0.0
20/01:30am 13.5 13.4 12.0 91 0.8 WNW 4 9 2 5 1016.1 - 0.0
20/01:00am 13.6 14.3 12.3 92 0.7 CALM 0 6 0 3 1016.3 - 0.0
20/12:30am 14.0 13.5 12.5 91 0.8 SSW 7 9 4 5 1016.4 - 0.0
20/12:00am 14.6 14.3 12.8 89 1.0 SSW 6 9 3 5 1016.4 1016.3 0.0
 
Date/Time
EST
Tmp

°C
App
Tmp
°C
Dew
Point
°C
Rel
Hum
%
Delta-T

°C
Wind Press
QNH
hPa
Press
MSL
hPa
Rain
since
9 am
mm
Dir
 
Spd
km/h
Gust
km/h
Spd
kts
Gust
kts
19/11:30pm 15.0 14.5 12.6 85 1.3 SSW 7 7 4 4 1016.4 - 0.0
19/11:00pm 16.2 15.3 12.6 79 2.0 SSW 9 9 5 5 1016.5 - 0.0
19/10:30pm 17.8 18.6 12.4 70 3.0 CALM 0 0 0 0 1016.4 - 0.0
19/10:00pm 18.3 19.1 12.6 69 3.2 CALM 0 0 0 0 1016.4 - 0.0
19/09:30pm 18.4 17.5 12.7 69 3.2 SE 9 9 5 5 1016.3 - 0.0
19/09:00pm 20.3 19.7 12.3 60 4.5 ESE 7 9 4 5 1016.1 1016.0 0.0
19/08:30pm 17.9 16.9 12.3 70 3.1 ESE 9 11 5 6 1015.9 - 0.0
19/08:00pm 19.3 17.7 12.9 66 3.6 E 13 15 7 8 1015.6 - 0.0
19/07:30pm 20.9 19.1 12.2 57 4.9 ENE 13 17 7 9 1015.2 - 0.0
19/07:00pm 21.3 18.3 12.0 55 5.2 ENE 19 24 10 13 1014.8 - 0.0
19/06:30pm 20.4 18.7 11.1 55 5.1 E 11 17 6 9 1014.1 - 0.0
19/06:00pm 21.6 20.0 10.2 48 6.2 NNE 9 9 5 5 1013.6 1013.5 0.0
19/05:30pm 23.3 22.0 9.9 42 7.3 ENE 7 7 4 4 1013.3 - 0.0
19/05:00pm 25.5 23.7 9.4 36 8.8 ENE 9 11 5 6 1013.0 - 0.0
19/04:30pm 27.3 25.9 7.2 28 10.7 ESE 4 11 2 6 1012.8 - 0.0
19/04:00pm 28.1 26.6 6.8 26 11.3 NNE 4 9 2 5 1012.6 - 0.0
19/03:30pm 27.9 26.0 7.4 27 11.0 NE 7 11 4 6 1012.7 - 0.0
19/03:00pm 27.5 25.5 6.4 26 11.1 SW 6 15 3 8 1012.6 1012.5 0.0
19/02:30pm 27.8 25.5 7.5 27 10.9 NW 9 15 5 8 1012.8 - 0.0
19/02:00pm 27.8 25.5 7.5 27 10.9 NW 9 17 5 9 1012.9 - 0.0
19/01:30pm 27.6 25.6 8.5 30 10.4 W 9 17 5 9 1013.3 - 0.0
19/01:00pm 27.0 25.1 8.9 32 9.9 WSW 9 15 5 8 1013.7 - 0.0
19/12:30pm 26.6 25.0 10.1 35 9.2 NW 9 17 5 9 1014.3 - 0.0
19/12:00pm 25.9 25.0 9.3 35 9.1 W 4 13 2 7 1014.9 1014.8 0.0
19/11:30am 25.0 23.8 9.4 37 8.5 SSE 6 11 3 6 1015.4 - 0.0
19/11:00am 25.0 23.8 10.2 39 8.2 NNW 7 11 4 6 1016.0 - 0.0
19/10:30am 24.2 23.3 10.7 42 7.5 N 6 13 3 7 1016.4 - 0.0
19/10:00am 22.6 22.2 13.0 54 5.5 NNW 7 11 4 6 1016.8 - 0.0
19/09:30am 21.0 20.7 13.3 61 4.4 NW 7 11 4 6 1017.1 - 0.0
19/09:00am 19.0 19.3 12.2 64 3.8 W 2 9 1 5 1017.4 1017.3 0.0
19/08:30am 17.8 18.6 12.6 71 2.9 CALM 0 0 0 0 1017.5 - 0.0
19/08:00am 16.4 16.7 11.0 70 2.9 CALM 0 7 0 4 1017.5 - 0.0
19/07:30am 14.8 15.5 12.2 84 1.4 CALM 0 0 0 0 1017.1 - 0.0
19/07:00am 12.2 12.6 11.4 95 0.4 CALM 0 0 0 0 1017.0 - 0.0
19/06:30am 9.8 9.7 9.6 99 0.1 CALM 0 0 0 0 1016.8 - 0.0
19/06:00am 10.0 9.9 9.4 96 0.3 CALM 0 0 0 0 1016.5 1016.4 0.0
19/05:30am 10.5 9.8 9.9 96 0.3 N 4 7 2 4 1016.3 - 0.0
19/05:07am 10.4 10.4 9.8 96 0.3 CALM 0 0 0 0 1016.1 - 0.0
19/05:00am 10.4 10.4 9.8 96 0.3 CALM 0 0 0 0 1016.1 - 0.0
19/04:40am 11.2 11.5 10.8 97 0.2 CALM 0 0 0 0 1016.0 - 0.0
19/04:39am 11.2 11.4 10.6 96 0.3 CALM 0 0 0 0 1016.0 - 0.0
19/04:30am 10.4 10.4 9.8 96 0.3 CALM 0 0 0 0 1015.9 - 0.0
19/04:21am 11.3 11.5 10.5 95 0.4 CALM 0 0 0 0 1015.8 - 0.0
19/04:00am 11.1 10.5 10.3 95 0.4 SW 4 9 2 5 1015.8 - 0.0
19/03:30am 11.1 11.3 10.5 96 0.3 CALM 0 4 0 2 1015.6 - 0.0
19/03:00am 11.4 9.9 10.6 95 0.4 NW 9 11 5 6 1015.8 1015.7 0.0
19/02:30am 11.6 11.2 11.0 96 0.3 NNW 4 7 2 4 1015.8 - 0.0
19/02:00am 11.8 12.1 10.8 94 0.5 CALM 0 0 0 0 1015.7 - 0.0
19/01:30am 12.3 11.0 11.2 93 0.6 NW 9 9 5 5 1015.9 - 0.0
19/01:00am 11.9 11.4 10.9 94 0.5 NNW 4 9 2 5 1015.9 - 0.0
19/12:30am 12.2 12.6 11.1 93 0.6 CALM 0 0 0 0 1016.0 - 0.0
19/12:00am 13.1 13.6 11.6 91 0.8 CALM 0 0 0 0 1016.0 1015.9 0.0
 
Date/Time
EST
Tmp

°C
App
Tmp
°C
Dew
Point
°C
Rel
Hum
%
Delta-T

°C
Wind Press
QNH
hPa
Press
MSL
hPa
Rain
since
9 am
mm
Dir
 
Spd
km/h
Gust
km/h
Spd
kts
Gust
kts
18/11:30pm 13.5 14.1 11.8 89 0.9 CALM 0 0 0 0 1015.8 - 0.0
18/11:00pm 13.6 14.3 12.3 92 0.7 CALM 0 0 0 0 1015.9 - 0.0
18/10:30pm 13.6 14.3 12.3 92 0.7 CALM 0 0 0 0 1015.9 - 0.0
18/10:00pm 14.1 13.5 12.3 89 1.0 NW 7 9 4 5 1016.0 - 0.0
18/09:30pm 14.0 14.8 12.5 91 0.8 CALM 0 0 0 0 1015.9 - 0.0
18/09:00pm 15.7 16.5 12.4 81 1.8 CALM 0 0 0 0 1015.7 1015.6 0.0
18/08:30pm 17.2 16.9 12.7 75 2.5 ESE 6 7 3 4 1015.3 - 0.0
18/08:00pm 17.5 18.2 13.4 77 2.3 ENE 2 7 1 4 1015.2 - 0.0
18/07:30pm 18.5 18.0 12.8 69 3.2 ENE 7 9 4 5 1014.7 - 0.0
18/07:00pm 19.2 19.9 12.2 64 3.9 CALM 0 0 0 0 1014.3 - 0.0
18/06:30pm 20.7 21.4 12.3 58 4.7 CALM 0 0 0 0 1013.8 - 0.0
18/06:00pm 21.0 21.8 12.5 58 4.8 CALM 0 0 0 0 1013.6 1013.5 0.0
18/05:30pm 23.7 23.8 10.0 42 7.5 CALM 0 0 0 0 1013.3 - 0.0
18/05:00pm 25.5 24.4 9.9 37 8.6 NNW 6 9 3 5 1013.0 - 0.0
18/04:30pm 27.4 26.0 8.8 31 10.2 NW 6 11 3 6 1012.8 - 0.0
18/04:00pm 27.9 25.6 7.4 27 11.0 WNW 9 15 5 8 1012.7 - 0.0
18/03:30pm 27.9 25.7 7.7 28 10.9 NW 9 13 5 7 1012.8 - 0.0
18/03:00pm 27.8 26.0 7.8 28 10.8 W 7 19 4 10 1012.7 1012.6 0.0
18/02:30pm 27.7 25.5 10.8 34 9.6 WNW 13 24 7 13 1012.9 - 0.0
18/02:00pm 26.9 25.3 11.5 38 8.8 NNW 11 19 6 10 1013.1 - 0.0
18/01:30pm 26.8 25.1 12.3 40 8.4 NNW 13 20 7 11 1013.4 - 0.0
18/01:00pm 26.9 25.9 13.5 43 7.9 NNW 11 22 6 12 1013.8 - 0.0
18/12:30pm 26.1 25.4 14.2 48 7.1 NNW 11 17 6 9 1014.4 - 0.0
18/12:00pm 25.3 23.7 12.7 45 7.3 N 13 19 7 10 1014.9 1014.8 0.0
18/11:30am 25.0 24.8 15.6 56 5.7 WNW 11 17 6 9 1015.6 - 0.0
18/11:00am 24.6 25.7 15.5 57 5.5 WNW 4 11 2 6 1016.3 - 0.0
18/10:30am 23.4 23.9 15.6 61 4.7 W 7 13 4 7 1016.8 - 0.0
18/10:00am 22.6 23.6 14.4 60 4.8 WNW 2 9 1 5 1017.0 - 0.0
18/09:30am 21.3 22.1 14.8 66 3.8 WSW 4 9 2 5 1017.2 - 0.0
18/09:00am 20.8 22.4 15.0 69 3.4 CALM 0 7 0 4 1017.4 1017.3 0.0
18/08:30am 19.3 20.8 15.8 80 2.1 SSW 2 7 1 4 1017.5 - 0.0
18/08:00am 18.0 19.9 15.8 87 1.3 CALM 0 0 0 0 1017.5 - 0.0
18/07:30am 16.3 17.9 14.9 91 0.8 CALM 0 0 0 0 1017.5 - 0.0
18/07:00am 14.4 15.6 13.9 97 0.3 CALM 0 0 0 0 1017.2 - 0.0
18/06:55am 14.1 15.2 13.6 97 0.3 CALM 0 0 0 0 1017.2 - 0.0
18/06:30am 12.9 13.7 12.5 97 0.2 CALM 0 0 0 0 1017.0 - 0.0
18/06:20am 13.2 14.1 12.8 97 0.2 CALM 0 0 0 0 1016.9 - 0.0
18/06:00am 13.0 13.7 12.3 95 0.4 CALM 0 0 0 0 1016.7 1016.6 0.0
18/05:30am 13.8 13.6 13.1 96 0.4 SSW 6 7 3 4 1016.4 - 0.0
18/05:12am 13.0 13.7 12.3 95 0.4 CALM 0 0 0 0 1016.3 - 0.0
18/05:00am 13.1 13.9 12.5 96 0.3 CALM 0 0 0 0 1016.3 - 0.0
18/04:47am 13.3 14.1 12.7 96 0.3 CALM 0 0 0 0 1016.4 - 0.0
18/04:30am 13.8 14.8 13.3 97 0.3 CALM 0 0 0 0 1016.4 - 0.0
18/04:00am 13.7 14.6 13.0 96 0.4 CALM 0 0 0 0 1016.4 - 0.0
18/03:30am 14.7 16.0 14.0 96 0.4 CALM 0 0 0 0 1016.4 - 0.0
18/03:00am 14.5 15.7 13.8 96 0.4 CALM 0 0 0 0 1016.5 1016.4 0.0
18/02:30am 14.0 15.0 13.3 96 0.4 CALM 0 0 0 0 1016.6 - 0.0
18/02:00am 15.2 16.6 14.3 94 0.5 CALM 0 0 0 0 1016.5 - 0.0
18/01:30am 15.4 16.7 14.2 92 0.7 CALM 0 0 0 0 1016.7 - 0.0
18/01:00am 15.5 16.8 14.1 91 0.8 CALM 0 0 0 0 1017.1 - 0.0
18/12:30am 15.2 15.4 14.1 93 0.6 SSW 6 7 3 4 1017.2 - 0.0
18/12:00am 16.7 18.3 14.8 88 1.1 CALM 0 0 0 0 1017.3 1017.2 0.0

Latest Capital City Observations: Canberra | Sydney | Melbourne | Brisbane | Adelaide | Perth | Hobart | Darwin

Other Formats:

Comma delimited format used in spreadsheet applications
http://www.bom.gov.au/fwo/IDQ60901/IDQ60901.94568.axf

JavaScript Object Notation format (JSON) in row-major order
http://www.bom.gov.au/fwo/IDQ60901/IDQ60901.94568.json